Latest Weather Observations for Goondiwindi

IDN60801

Issued at 12:33 pm EDT Thursday 20 January 2022 (issued every 10 minutes, with the page automatically refreshed every 10 minutes)

About weather observations | Map of weather stations | Latest weather observations for NSW | Other Formats
Station Details ID: 041560 Name: GOONDIWINDI AIRPORT Lat: -28.52 Lon: 150.32 Height: 218.0 m
Data from the previous 72 hours. | See also: Recent months for locations in New South Wales
Date/Time
EDT
Temp
°C
App
Temp
°C
Dew
Point
°C
Rel
Hum
%
Delta-T
°C
Wind Press
QNH
hPa
Press
MSL
hPa
Rain since
9am
mm
Dir  Spd
km/h
Gust
km/h
Spd
kts
Gust
kts
20/12:30pm 26.6 26.5 18.7 62 5.1 SE 17 24 9 13 1018.2 1016.9 0.0
20/12:00pm 26.4 26.8 19.0 63 4.8 SE 15 22 8 12 1018.3 1017.0 0.0
20/11:30am 26.2 26.2 18.9 64 4.7 SE 17 28 9 15 1018.4 1017.1 0.0
20/11:00am 25.9 25.7 19.3 67 4.3 ESE 19 28 10 15 1018.4 1017.1 0.0
20/10:30am 25.0 25.0 18.9 69 3.9 ESE 17 24 9 13 1018.2 1016.9 0.0
20/10:00am 24.8 25.7 19.2 71 3.6 SE 13 19 7 10 1018.0 1016.6 9.0
20/09:30am 24.0 25.4 19.5 76 2.9 SE 11 17 6 9 1018.0 1016.6 9.0
20/09:00am 23.0 25.3 19.8 82 2.1 SE 7 11 4 6 1017.7 1016.3 9.0
20/08:30am 22.3 23.4 19.7 85 1.7 SE 13 19 7 10 1017.4 1016.0 9.0
20/08:00am 21.9 23.8 19.8 88 1.4 SE 9 13 5 7 1017.1 1015.7 9.0
20/07:30am 21.5 23.4 19.8 90 1.1 SE 9 11 5 6 1016.6 1015.2 9.0
20/07:00am 21.3 23.7 19.6 90 1.1 SE 6 9 3 5 1016.2 1014.8 9.0
20/06:30am 21.3 24.2 19.8 91 1.0 SE 4 6 2 3 1016.3 1014.9 8.8
20/06:00am 21.3 23.7 19.6 90 1.1 ESE 6 7 3 4 1015.8 1014.4 8.8
20/05:30am 21.4 24.2 19.7 90 1.1 ESE 4 6 2 3 1015.5 1014.1 8.8
20/05:00am 21.5 23.8 19.4 88 1.3 S 6 9 3 5 1014.7 1013.4 8.8
20/04:30am 21.7 24.5 20.5 93 0.8 SSE 6 7 3 4 1014.7 1013.4 8.8
20/04:00am 21.9 25.1 20.5 92 0.9 SSE 4 6 2 3 1014.7 1013.4 8.8
20/03:30am 21.9 25.4 21.1 95 0.5 SE 4 4 2 2 1014.6 1013.3 8.8
20/03:00am 22.1 26.4 21.1 94 0.7 CALM 0 0 0 0 1014.7 1013.4 8.8
20/02:30am 21.8 25.5 20.8 94 0.7 SE 2 2 1 1 1015.0 1013.7 8.8
20/02:00am 21.8 25.5 20.8 94 0.7 SE 2 6 1 3 1015.4 1014.0 8.8
20/01:30am 21.7 24.6 20.7 94 0.7 ESE 6 7 3 4 1015.5 1014.1 8.8
20/01:00am 21.6 24.8 20.6 94 0.7 ESE 4 6 2 3 1015.7 1014.3 8.8
20/12:30am 21.6 24.3 20.2 92 0.9 E 6 9 3 5 1015.7 1014.3 8.8
20/12:00am 21.6 24.4 20.4 93 0.8 E 6 9 3 5 1015.9 1014.5 8.8
 
Date/Time
EDT
Temp
°C
App
Temp
°C
Dew
Point
°C
Rel
Hum
%
Delta-T
°C
Wind Press
QNH
hPa
Press
MSL
hPa
Rain since
9am
mm
Dir  Spd
km/h
Gust
km/h
Spd
kts
Gust
kts
19/11:30pm 21.7 23.9 20.3 92 0.9 ENE 9 13 5 7 1015.7 1014.3 8.8
19/11:00pm 21.9 23.8 20.5 92 0.9 ENE 11 20 6 11 1015.5 1014.1 8.8
19/10:30pm 22.0 24.0 20.8 93 0.8 ENE 11 17 6 9 1015.5 1014.1 8.8
19/10:00pm 22.1 23.6 21.3 95 0.5 E 15 20 8 11 1015.3 1013.9 8.8
19/09:30pm 22.1 22.5 20.9 93 0.8 E 20 28 11 15 1014.8 1013.5 8.6
19/09:00pm 23.1 23.9 21.7 92 0.9 ESE 20 30 11 16 1014.3 1013.0 7.0
19/08:30pm 23.5 26.2 22.8 96 0.5 SSE 13 17 7 9 1013.8 1012.4 5.8
19/08:00pm 23.4 26.7 22.6 95 0.5 SSE 9 13 5 7 1013.5 1012.1 4.2
19/07:30pm 23.5 26.0 22.5 94 0.7 SE 13 19 7 10 1012.9 1011.5 3.6
19/07:00pm 23.3 26.5 22.3 94 0.7 ESE 9 11 5 6 1012.2 1010.8 3.0
19/06:30pm 23.7 27.4 22.5 93 0.8 ENE 7 13 4 7 1012.0 1010.6 0.8
19/06:00pm 23.4 25.3 22.0 92 0.9 SW 15 28 8 15 1011.7 1010.3 0.0
19/05:41pm 25.4 24.3 21.1 77 2.9 SSW 28 50 15 27 1010.9 1009.5 0.0
19/05:30pm 29.4 30.9 20.5 58 5.9 S 13 33 7 18 1010.2 1008.9 0.0
19/05:00pm 32.3 35.1 20.9 51 7.7 ESE 7 15 4 8 1009.8 1008.4 0.0
19/04:30pm 31.4 33.8 20.0 50 7.6 SE 7 11 4 6 1010.2 1008.9 0.0
19/04:00pm 32.2 34.7 21.1 52 7.5 SSE 9 19 5 10 1010.3 1009.0 0.0
19/03:30pm 31.4 33.6 20.4 52 7.4 SE 9 17 5 9 1010.7 1009.3 0.0
19/03:00pm 31.6 34.2 20.5 51 7.4 ESE 7 11 4 6 1011.1 1009.7 0.0
19/02:30pm 31.1 34.3 21.3 56 6.6 NNE 6 9 3 5 1011.4 1010.0 0.0
19/02:00pm 30.3 33.4 21.1 58 6.2 W 6 9 3 5 1011.7 1010.3 0.0
19/01:30pm 29.8 32.6 20.4 57 6.3 NNE 6 11 3 6 1012.2 1010.8 0.0
19/01:00pm 29.8 32.7 20.6 57 6.1 NNW 6 11 3 6 1012.5 1011.1 0.0
19/12:30pm 30.3 33.4 21.4 59 6.0 NNE 7 15 4 8 1012.8 1011.4 0.0
19/12:00pm 29.3 32.3 21.3 62 5.4 NNW 7 13 4 7 1013.0 1011.6 0.0
19/11:30am 29.2 31.3 21.7 64 5.1 N 13 20 7 11 1013.2 1011.8 0.0
19/11:00am 28.0 30.4 21.5 67 4.4 NNE 11 19 6 10 1013.3 1011.9 0.0
19/10:30am 27.1 29.5 21.6 72 3.7 N 11 17 6 9 1013.2 1011.8 0.0
19/10:00am 26.7 29.2 22.5 78 2.9 NNE 13 20 7 11 1013.2 1011.8 14.0
19/09:30am 25.4 27.3 21.3 78 2.7 NNE 13 19 7 10 1013.5 1012.1 14.0
19/09:00am 24.3 25.7 21.0 82 2.2 NE 15 19 8 10 1013.3 1011.9 14.0
19/08:30am 23.8 26.5 21.3 86 1.7 NE 9 15 5 8 1013.4 1012.0 14.0
19/08:00am 22.6 25.6 21.2 92 0.9 ENE 7 9 4 5 1013.1 1011.7 14.0
19/07:30am 21.9 24.9 20.9 94 0.7 E 6 9 3 5 1012.8 1011.4 14.0
19/07:00am 21.5 24.5 20.8 96 0.5 E 6 7 3 4 1012.2 1010.8 14.0
19/06:30am 21.1 24.0 20.6 97 0.3 ESE 6 6 3 3 1011.9 1010.5 14.0
19/06:00am 20.8 24.4 20.5 98 0.2 E 2 4 1 2 1011.1 1009.7 14.0
19/05:30am 20.8 24.0 20.5 98 0.2 E 4 7 2 4 1010.5 1009.1 14.0
19/05:00am 20.8 23.6 20.5 98 0.2 E 6 9 3 5 1010.0 1008.7 14.0
19/04:30am 20.8 23.5 20.3 97 0.3 E 6 9 3 5 1009.8 1008.4 14.0
19/04:00am 20.8 23.5 20.3 97 0.3 ESE 6 9 3 5 1009.6 1008.2 14.0
19/03:30am 20.9 23.7 20.4 97 0.3 ESE 6 7 3 4 1009.5 1008.1 14.0
19/03:00am 21.1 23.9 20.4 96 0.5 ENE 6 9 3 5 1009.2 1007.8 14.0
19/02:30am 21.0 24.2 20.5 97 0.3 ESE 4 6 2 3 1009.6 1008.2 14.0
19/02:00am 21.2 23.8 20.5 96 0.5 SE 7 11 4 6 1009.6 1008.2 14.0
19/01:30am 21.6 24.6 20.8 95 0.5 ESE 6 7 3 4 1010.3 1009.0 14.0
19/01:00am 21.4 24.6 20.4 94 0.7 N 4 6 2 3 1010.8 1009.4 14.0
19/12:30am 21.4 24.6 20.4 94 0.7 NNW 4 6 2 3 1011.2 1009.8 14.0
19/12:00am 21.4 24.6 20.6 95 0.5 NNW 4 6 2 3 1011.4 1010.0 14.0
 
Date/Time
EDT
Temp
°C
App
Temp
°C
Dew
Point
°C
Rel
Hum
%
Delta-T
°C
Wind Press
QNH
hPa
Press
MSL
hPa
Rain since
9am
mm
Dir  Spd
km/h
Gust
km/h
Spd
kts
Gust
kts
18/11:30pm 21.2 23.8 20.4 95 0.5 NW 7 9 4 5 1011.3 1009.9 14.0
18/11:00pm 21.4 23.5 20.2 93 0.8 NNE 9 13 5 7 1011.1 1009.7 14.0
18/10:30pm 21.8 23.2 20.4 92 0.9 NE 13 20 7 11 1011.0 1009.6 14.0
18/10:00pm 21.8 22.7 20.1 90 1.1 ENE 15 24 8 13 1010.7 1009.3 14.0
18/09:30pm 21.7 21.5 19.8 89 1.2 E 20 30 11 16 1010.2 1008.9 14.0
18/09:00pm 21.6 21.2 20.1 91 1.0 E 22 35 12 19 1010.6 1009.2 14.0
18/08:30pm 21.1 20.3 20.1 94 0.6 ESE 24 35 13 19 1011.0 1009.6 14.0
18/08:00pm 21.1 21.2 20.3 95 0.5 ESE 20 28 11 15 1011.3 1009.9 14.0
18/07:30pm 21.3 21.7 20.6 96 0.5 SE 19 26 10 14 1011.0 1009.6 13.2
18/07:00pm 21.5 20.3 20.8 96 0.5 SE 28 37 15 20 1010.8 1009.4 12.0
18/06:30pm 21.3 20.7 20.6 96 0.5 SSE 24 41 13 22 1010.1 1008.8 10.6
18/06:00pm 21.5 19.6 21.0 97 0.3 SSW 32 48 17 26 1010.0 1008.7 5.0
18/05:52pm 21.4 17.2 20.9 97 0.3 SSW 44 69 24 37 1009.7 1008.3 4.0
18/05:30pm 24.7 17.6 20.0 75 3.1 SSW 57 96 31 52 1009.2 1007.8 0.0
18/05:27pm 25.7 20.9 19.3 67 4.1 SW 43 96 23 52 1008.2 1006.8 0.0
18/05:24pm 26.7 25.4 19.1 63 4.9 WSW 24 69 13 37 1008.9 1007.5 0.0
18/05:21pm 32.3 33.6 19.2 46 8.6 W 11 69 6 37 1009.4 1008.0 0.0
18/05:20pm 33.4 35.9 19.8 44 9.1 WNW 6 32 3 17 1009.0 1007.6 0.0
18/05:00pm 33.9 36.1 19.6 43 9.6 N 7 13 4 7 1007.0 1005.6 0.0
18/04:30pm 34.6 36.3 19.4 40 10.1 NNE 9 17 5 9 1006.6 1005.2 0.0
18/04:00pm 35.1 35.7 19.5 40 10.4 NNE 15 22 8 12 1007.0 1005.6 0.0
18/03:30pm 35.7 36.0 19.6 39 10.8 NNE 17 28 9 15 1007.3 1005.9 0.0
18/03:00pm 35.5 36.1 19.4 38 10.8 NNE 15 24 8 13 1007.5 1006.1 0.0
18/02:30pm 34.5 35.8 20.1 42 9.7 N 13 24 7 13 1008.3 1006.9 0.0
18/02:00pm 34.6 36.5 20.6 44 9.5 N 11 19 6 10 1009.0 1007.6 0.0
18/01:30pm 34.3 35.5 19.9 42 9.6 NNE 13 28 7 15 1009.6 1008.2 0.0
18/01:00pm 32.9 34.0 19.7 45 8.8 NNE 13 28 7 15 1010.1 1008.8 0.0
18/12:30pm 33.1 34.5 20.3 47 8.6 NNE 13 26 7 14 1010.9 1009.5 0.0
18/12:00pm 32.1 32.2 20.0 48 8.1 NNE 19 28 10 15 1011.4 1010.0 0.0
18/11:30am 31.6 31.9 20.5 51 7.4 NNE 19 37 10 20 1011.7 1010.3 0.0
18/11:00am 30.7 30.8 20.3 53 6.9 NNE 20 32 11 17 1011.9 1010.5 0.0
18/10:30am 30.4 30.8 20.9 56 6.4 N 20 30 11 16 1012.2 1010.8 0.0
18/10:00am 28.7 28.6 19.9 59 5.8 N 20 32 11 17 1012.4 1011.0 0.0
18/09:30am 28.5 28.3 20.5 62 5.3 NNE 22 30 12 16 1012.3 1010.9 0.0
18/09:00am 27.7 27.5 20.5 65 4.8 NNE 22 30 12 16 1012.2 1010.8 0.0
18/08:30am 26.4 26.6 20.5 70 3.9 NNE 20 26 11 14 1012.1 1010.7 0.0
18/08:00am 26.2 27.1 20.8 72 3.6 NNE 17 22 9 12 1011.7 1010.3 0.0
18/07:30am 24.9 26.2 20.8 78 2.7 NE 15 20 8 11 1011.4 1010.0 0.0
18/07:00am 24.4 26.7 20.7 80 2.4 NE 9 15 5 8 1011.1 1009.7 0.0
18/06:30am 23.9 26.5 20.4 81 2.3 NE 7 11 4 6 1010.9 1009.5 0.0
18/06:00am 24.0 25.9 20.5 81 2.3 NE 11 15 6 8 1010.3 1009.0 0.0
18/05:30am 24.3 26.2 20.6 80 2.4 NE 11 17 6 9 1009.8 1008.4 0.0
18/05:00am 24.6 26.2 20.7 79 2.6 NE 13 20 7 11 1009.7 1008.3 0.0
18/04:30am 24.9 26.4 20.6 77 2.8 NE 13 20 7 11 1009.6 1008.2 0.0
18/04:00am 25.2 27.2 20.7 76 3.0 NE 11 19 6 10 1009.5 1008.1 0.0
18/03:30am 25.7 27.3 20.7 74 3.3 NE 13 20 7 11 1009.7 1008.3 0.0
18/03:00am 25.9 27.5 20.7 73 3.4 NE 13 19 7 10 1009.4 1008.0 0.0
18/02:30am 26.4 27.6 20.7 71 3.8 NE 15 24 8 13 1009.4 1008.0 0.0
18/02:00am 26.6 27.3 20.4 68 4.1 NE 17 28 9 15 1009.5 1008.1 0.0
18/01:30am 27.1 27.9 20.7 68 4.3 NE 17 28 9 15 1009.7 1008.3 0.0
18/01:00am 27.6 28.0 20.7 66 4.6 NE 19 30 10 16 1010.0 1008.7 0.0
18/12:30am 28.0 29.5 20.6 64 4.9 NE 13 24 7 13 1009.8 1008.4 0.0
18/12:00am 28.4 29.2 19.9 60 5.6 ENE 15 20 8 11 1009.8 1008.4 0.0
 
Date/Time
EDT
Temp
°C
App
Temp
°C
Dew
Point
°C
Rel
Hum
%
Delta-T
°C
Wind Press
QNH
hPa
Press
MSL
hPa
Rain since
9am
mm
Dir  Spd
km/h
Gust
km/h
Spd
kts
Gust
kts
17/11:30pm 29.1 29.8 19.7 57 6.2 ENE 15 20 8 11 1009.8 1008.4 0.0
17/11:00pm 29.5 30.9 19.5 55 6.6 ENE 11 17 6 9 1009.6 1008.2 0.0
17/10:30pm 30.4 31.2 19.1 50 7.4 NE 13 19 7 10 1009.3 1007.9 0.0
17/10:00pm 31.3 31.7 19.0 48 8.1 NE 15 19 8 10 1009.0 1007.6 0.0
17/09:30pm 28.3 31.3 21.3 65 4.7 E 7 7 4 4 1008.7 1007.3 0.0
17/09:00pm 29.4 33.8 21.4 62 5.4 CALM 0 0 0 0 1008.3 1006.9 0.0
17/08:30pm 30.6 33.9 20.8 56 6.6 N 4 6 2 3 1008.0 1006.6 0.0
17/08:00pm 31.2 33.3 20.2 52 7.4 N 9 11 5 6 1007.5 1006.1 0.0
17/07:30pm 33.7 35.2 19.7 43 9.3 N 11 15 6 8 1007.1 1005.7 0.0
17/07:00pm 34.6 35.9 19.4 40 10.1 N 11 17 6 9 1006.8 1005.4 0.0
17/06:30pm 35.1 36.5 19.5 40 10.4 N 11 17 6 9 1006.7 1005.3 0.0
17/06:00pm 34.6 36.0 18.6 38 10.6 E 9 15 5 8 1006.4 1005.0 0.0
17/05:30pm 35.6 37.6 18.7 37 11.2 E 6 11 3 6 1006.4 1005.0 0.0
17/05:00pm 36.0 37.0 17.7 34 12.0 ENE 9 17 5 9 1006.4 1005.0 0.0
17/04:30pm 36.3 37.4 17.9 33 12.1 NNE 9 17 5 9 1006.4 1005.0 0.0
17/04:00pm 36.5 37.5 18.6 35 11.9 NNE 11 22 6 12 1006.4 1005.0 0.0
17/03:30pm 37.6 38.6 19.5 34 12.2 E 13 20 7 11 1006.7 1005.3 0.0
17/03:00pm 37.0 38.6 19.9 36 11.6 NNE 11 24 6 13 1007.0 1005.6 0.0
17/02:30pm 34.3 36.1 19.5 41 9.9 NNE 9 17 5 9 1007.3 1005.9 0.0
17/02:00pm 35.5 37.2 20.2 40 10.3 NNE 11 20 6 11 1007.5 1006.1 0.0

Other formats

Comma delimited format used in spreadsheet applications
http://www.bom.gov.au/fwo/IDN60801/IDN60801.99468.axf

JavaScript Object Notation format (JSON) in row-major order
http://www.bom.gov.au/fwo/IDN60801/IDN60801.99468.json

Data quality

Most of these data are generated automatically and are frequently updated. Quality checks on data are not normally performed. It is possible for incorrect values to appear. Refer to information at About Latest Weather Observations and please check the disclaimer before using these data.